Список аэропортов
Фактическая погода:

24 мая, 16:00
Температура: +22°C (+22.0*)
Ветер: юго-западный 5 м/с
Давление: *758 мм
Без существ. явл.
Время (МСК)Темп. СВетерВлажностьДавлениеОблачностьОсадки
15:00+23ЮЗ, 3 м/с30%1011 гПамалооблачно
16:00+23ЮЗ, 2 м/с31%1010 гПаоблачно
17:00+23Ю, 2 м/с33%1010 гПаоблачно
18:00+23ЮВ, 3 м/с34%1010 гПаоблачно
19:00+20Ю, 3 м/с53%1010 гПаоблачнодождь
20:00+19В, 1 м/с63%1010 гПаоблачнодождь
21:00+17СВ, 2 м/с73%1010 гПаоблачнодождь
22:00+15В, 1 м/с81%1011 гПаоблачно
23:00+14ЮВ, 1 м/с87%1011 гПаоблачно
25 мая
00:00+14ЮЗ, 2 м/с87%1011 гПаоблачно
01:00+13ЮЗ, 2 м/с85%1011 гПаоблачно
02:00+12ЮЗ, 2 м/с87%1011 гПаоблачно
03:00+13ЮЗ, 2 м/с84%1011 гПаоблачносл. дождь
04:00+13ЮЗ, 3 м/с85%1011 гПаоблачносл. дождь
05:00+13ЮЗ, 2 м/с88%1010 гПаоблачносл. дождь
06:00+13ЮЗ, 2 м/с90%1010 гПаоблачносл. дождь
07:00+15ЮЗ, 4 м/с86%1010 гПаоблачно
08:00+16Ю, 4 м/с77%1010 гПаоблачно
09:00+17Ю, 3 м/с72%1009 гПаоблачносл. дождь
10:00+19ЮЗ, 4 м/с57%1009 гПаоблачно
11:00+20Ю, 5 м/с52%1008 гПаоблачно
12:00+21ЮЗ, 7 м/с58%1007 гПаоблачнодождь
13:00+21ЮЗ, 8 м/с56%1007 гПаоблачнодождь
14:00+21ЮЗ, 9 м/с44%1007 гПаоблачносл. дождь
15:00+17З, 9 м/с78%1007 гПаоблачнодождь
16:00+16ЮЗ, 7 м/с84%1008 гПаоблачнодождь
17:00+17ЮЗ, 6 м/с73%1008 гПаоблачно
18:00+17З, 6 м/с66%1008 гПаоблачно
19:00+17ЮЗ, 5 м/с64%1008 гПас прояснениями
20:00+17ЮЗ, 4 м/с66%1008 гПаясно
21:00+16ЮЗ, 3 м/с73%1008 гПаоблачно
22:00+14ЮЗ, 3 м/с80%1009 гПаоблачно
23:00+14ЮЗ, 4 м/с87%1009 гПаоблачно
26 мая
00:00+14ЮЗ, 3 м/с91%1008 гПаоблачно
01:00+13ЮЗ, 3 м/с94%1009 гПаоблачно
02:00+12ЮЗ, 2 м/с97%1008 гПаоблачно
03:00+11ЮЗ, 2 м/с99%1008 гПаоблачно
04:00+11ЮЗ, 2 м/с100%1008 гПаоблачно
05:00+11ЮЗ, 2 м/с99%1007 гПаоблачно
06:00+12Ю, 2 м/с94%1007 гПаоблачно
07:00+14Ю, 2 м/с80%1006 гПаоблачно
08:00+17Ю, 2 м/с65%1006 гПаоблачно
09:00+17Ю, 3 м/с56%1006 гПаоблачно
10:00+18Ю, 3 м/с54%1005 гПаоблачно
11:00+19ЮЗ, 3 м/с50%1004 гПаоблачно
12:00+19ЮЗ, 3 м/с47%1004 гПаоблачно
13:00+20ЮЗ, 4 м/с44%1003 гПас прояснениями
14:00+21ЮЗ, 4 м/с42%1003 гПас прояснениями
15:00+20З, 5 м/с52%1003 гПаоблачносл. дождь